Time;durP1;ratioP1;P1;durP2;ratioP2;P2;SDS_P1;SDS_P2;PMS_P1;PMS_P2;Temp;Humidity;BMP_temperature;BMP_pressure;BME280_temperature;BME280_humidity;BME280_pressure;Samples;Min_cycle;Max_cycle;Signal;HPM_P1;HPM_P2
2022/04/17 00:00:19;;;;;;;11.68;8.73;;;;;;;4.29;100.00;97564.47;5104355;28;20440;-54
2022/04/17 00:02:47;;;;;;;10.83;8.23;;;;;;;4.16;100.00;97561.66;5093962;28;20055;-53
2022/04/17 00:05:16;;;;;;;10.55;8.43;;;;;;;4.16;100.00;97560.81;5102554;28;20540;-55
2022/04/17 00:07:44;;;;;;;8.95;8.00;;;;;;;4.00;100.00;97558.97;5098826;28;20043;-57
2022/04/17 00:10:13;;;;;;;10.98;8.65;;;;;;;3.87;100.00;97555.28;5104018;28;20068;-55
2022/04/17 00:12:41;;;;;;;9.77;8.30;;;;;;;3.91;100.00;97556.81;5095993;28;20471;-51
2022/04/17 00:15:10;;;;;;;9.55;7.60;;;;;;;3.84;100.00;97552.84;5106135;27;20063;-59
2022/04/17 00:17:42;;;;;;;9.23;8.20;;;;;;;3.78;100.00;97556.56;5100621;27;20060;-53
2022/04/17 00:20:11;;;;;;;8.70;7.80;;;;;;;3.90;100.00;97557.75;5106130;27;20575;-55
2022/04/17 00:22:41;;;;;;;10.10;7.78;;;;;;;4.00;100.00;97545.94;5099396;27;20574;-55
2022/04/17 00:25:10;;;;;;;10.35;7.53;;;;;;;4.12;100.00;97547.06;5098848;27;20080;-55
2022/04/17 00:27:39;;;;;;;8.13;7.32;;;;;;;4.19;100.00;97548.44;5104033;27;20090;-53
2022/04/17 00:30:09;;;;;;;8.75;7.85;;;;;;;3.99;100.00;97546.00;5100957;27;20056;-57
2022/04/17 00:32:37;;;;;;;8.85;7.90;;;;;;;4.02;100.00;97536.25;5104736;27;20445;-48
2022/04/17 00:35:08;;;;;;;8.68;7.72;;;;;;;3.84;100.00;97541.56;5101085;27;20561;-53
2022/04/17 00:37:36;;;;;;;9.07;7.53;;;;;;;3.80;100.00;97530.44;5108118;27;20066;-53
2022/04/17 00:40:06;;;;;;;9.00;7.95;;;;;;;3.74;100.00;97539.41;5098396;27;20075;-55
2022/04/17 00:42:35;;;;;;;8.98;7.70;;;;;;;3.85;100.00;97544.06;5102229;27;20465;-56
2022/04/17 00:45:03;;;;;;;8.68;7.65;;;;;;;3.87;100.00;97542.25;5099458;27;20074;-54
2022/04/17 00:47:32;;;;;;;9.95;7.88;;;;;;;3.88;100.00;97543.94;5105668;27;20059;-51
2022/04/17 00:50:00;;;;;;;9.23;8.23;;;;;;;3.77;100.00;97535.78;5103175;27;20074;-53
2022/04/17 00:52:30;;;;;;;9.95;8.13;;;;;;;3.76;100.00;97541.94;5096885;27;20079;-49
2022/04/17 00:55:01;;;;;;;10.65;8.90;;;;;;;3.65;100.00;97532.03;5107111;27;20118;-57
2022/04/17 00:57:30;;;;;;;9.48;8.48;;;;;;;3.76;100.00;97523.69;5105455;27;20149;-48
2022/04/17 00:59:59;;;;;;;10.65;8.25;;;;;;;3.62;100.00;97532.19;5103359;27;20063;-56
2022/04/17 01:02:27;;;;;;;10.63;9.25;;;;;;;3.64;100.00;97532.09;5096955;27;20125;-49
2022/04/17 01:04:55;;;;;;;9.73;8.73;;;;;;;3.56;100.00;97528.09;5104379;27;20071;-55
2022/04/17 01:07:24;;;;;;;11.02;8.57;;;;;;;3.45;100.00;97529.56;5102450;27;20079;-55
2022/04/17 01:09:54;;;;;;;10.02;8.75;;;;;;;3.41;100.00;97522.81;5106002;27;20075;-55
2022/04/17 01:12:22;;;;;;;12.23;8.47;;;;;;;3.53;100.00;97523.03;5100095;27;20067;-54
2022/04/17 01:14:51;;;;;;;9.23;8.07;;;;;;;3.62;100.00;97520.91;5103083;27;20529;-56
2022/04/17 01:17:19;;;;;;;9.45;8.00;;;;;;;3.53;100.00;97525.66;5106021;27;20062;-59
2022/04/17 01:19:48;;;;;;;9.73;8.15;;;;;;;3.43;100.00;97532.22;5104900;27;20071;-52
2022/04/17 01:22:18;;;;;;;9.05;7.88;;;;;;;3.43;100.00;97520.97;5103346;27;20129;-55
2022/04/17 01:27:33;;;;;;;9.32;8.32;;;;;;;3.43;100.00;97513.13;5105313;27;20391;-55
2022/04/17 01:30:02;;;;;;;9.18;7.90;;;;;;;3.25;100.00;97507.06;5104824;27;20066;-58
2022/04/17 01:32:30;;;;;;;10.00;8.52;;;;;;;3.17;100.00;97512.63;5103895;27;20078;-56
2022/04/17 01:34:59;;;;;;;9.20;8.13;;;;;;;3.13;100.00;97515.44;5107147;27;20063;-55
2022/04/17 01:37:28;;;;;;;9.07;8.15;;;;;;;2.90;100.00;97513.94;5099901;28;20083;-52
2022/04/17 01:39:57;;;;;;;8.90;8.00;;;;;;;3.02;100.00;97505.53;5106182;27;20430;-54
2022/04/17 01:42:25;;;;;;;8.55;7.65;;;;;;;3.00;100.00;97497.81;5107780;27;20074;-55
2022/04/17 01:44:54;;;;;;;9.23;7.70;;;;;;;2.81;100.00;97510.00;5109452;27;20101;-57
2022/04/17 01:47:23;;;;;;;8.30;7.50;;;;;;;2.77;100.00;97501.47;5107886;27;20071;-49
2022/04/17 01:49:52;;;;;;;8.57;7.75;;;;;;;2.78;100.00;97499.72;5101969;27;20070;-57
2022/04/17 01:52:20;;;;;;;10.50;8.15;;;;;;;2.80;100.00;97497.88;5093354;27;20098;-53
2022/04/17 01:54:49;;;;;;;9.50;7.70;;;;;;;2.73;100.00;97507.75;5110864;27;20472;-51
2022/04/17 01:57:18;;;;;;;9.70;7.68;;;;;;;2.78;100.00;97502.31;5101357;27;20035;-52
2022/04/17 01:59:46;;;;;;;9.73;7.78;;;;;;;2.95;100.00;97497.16;5099312;27;20060;-55
2022/04/17 02:02:15;;;;;;;9.80;7.57;;;;;;;3.02;100.00;97477.72;5095201;28;20439;-51
2022/04/17 02:04:43;;;;;;;8.48;7.65;;;;;;;2.91;100.00;97484.34;5103638;27;20071;-51
2022/04/17 02:07:11;;;;;;;9.10;7.50;;;;;;;2.91;100.00;97485.19;5105812;27;20080;-48
2022/04/17 02:09:40;;;;;;;9.32;8.15;;;;;;;2.97;100.00;97482.31;5104362;28;20521;-53
2022/04/17 02:12:10;;;;;;;8.90;8.00;;;;;;;2.98;100.00;97470.97;5103966;27;20180;-59
2022/04/17 02:14:38;;;;;;;9.82;7.43;;;;;;;3.05;100.00;97464.53;5098193;27;20063;-49
2022/04/17 02:17:06;;;;;;;8.93;8.02;;;;;;;3.00;100.00;97466.53;5092100;27;20429;-56
2022/04/17 02:19:36;;;;;;;10.45;7.20;;;;;;;2.89;100.00;97471.41;5098604;27;20040;-50
2022/04/17 02:22:05;;;;;;;10.10;7.80;;;;;;;2.77;100.00;97472.81;5108828;27;20074;-55
2022/04/17 02:24:33;;;;;;;8.80;7.40;;;;;;;2.87;100.00;97469.78;5104785;28;20104;-56
2022/04/17 02:27:02;;;;;;;8.63;7.80;;;;;;;2.79;100.00;97475.38;5108562;27;20058;-57
2022/04/17 02:29:33;;;;;;;10.10;7.72;;;;;;;2.92;100.00;97465.19;5104323;27;20083;-52
2022/04/17 02:32:01;;;;;;;10.38;7.70;;;;;;;2.85;100.00;97456.81;5081184;28;20044;-53
2022/04/17 02:34:30;;;;;;;8.20;7.38;;;;;;;2.90;100.00;97452.25;5098404;28;21484;-54
2022/04/17 02:36:58;;;;;;;8.73;7.20;;;;;;;2.77;100.00;97465.00;5104549;27;20493;-54
2022/04/17 02:39:27;;;;;;;8.52;7.60;;;;;;;2.82;100.00;97457.84;5097441;28;20067;-49
2022/04/17 02:41:56;;;;;;;8.55;7.70;;;;;;;2.83;100.00;97453.47;5107443;27;20063;-60
2022/04/17 02:44:24;;;;;;;10.63;8.23;;;;;;;2.79;100.00;97457.13;5099044;27;20484;-53
2022/04/17 02:49:40;;;;;;;9.45;8.23;;;;;;;2.68;100.00;97448.97;5097455;27;20071;-55
2022/04/17 02:52:08;;;;;;;8.50;7.70;;;;;;;2.66;100.00;97443.00;5101887;27;20547;-57
2022/04/17 02:54:38;;;;;;;8.68;7.80;;;;;;;2.66;100.00;97438.63;5106782;27;20075;-53
2022/04/17 02:57:06;;;;;;;7.90;7.10;;;;;;;2.65;100.00;97443.88;5104001;27;20541;-54
2022/04/17 02:59:34;;;;;;;9.48;7.60;;;;;;;2.47;100.00;97438.63;5109104;27;20053;-56
2022/04/17 03:07:36;;;;;;;9.18;8.05;;;;;;;2.45;100.00;97445.69;5101241;27;20075;-52
2022/04/17 03:10:06;;;;;;;11.27;8.85;;;;;;;2.63;100.00;97440.53;5098514;27;20075;-56
2022/04/17 03:12:37;;;;;;;10.98;8.93;;;;;;;2.61;100.00;97443.19;5097625;28;20525;-57
2022/04/17 03:15:06;;;;;;;9.05;8.13;;;;;;;2.51;100.00;97441.94;5096636;27;20162;-61
2022/04/17 03:17:36;;;;;;;9.63;8.07;;;;;;;2.54;100.00;97441.78;5096199;28;20060;-49
2022/04/17 03:20:07;;;;;;;10.35;8.48;;;;;;;2.57;100.00;97444.25;5099270;28;20033;-51
2022/04/17 03:22:35;;;;;;;11.68;9.05;;;;;;;2.68;100.00;97441.16;5098138;28;20079;-55
2022/04/17 03:25:05;;;;;;;11.23;9.13;;;;;;;2.61;100.00;97437.97;5096522;28;20054;-52
2022/04/17 03:27:33;;;;;;;10.73;8.73;;;;;;;2.53;100.00;97438.34;5097192;28;20079;-52
2022/04/17 03:30:02;;;;;;;10.60;9.05;;;;;;;2.47;100.00;97438.63;5100949;28;20068;-49
2022/04/17 03:32:31;;;;;;;11.05;8.57;;;;;;;2.66;100.00;97437.78;5095484;28;20568;-52
2022/04/17 03:35:02;;;;;;;10.02;8.65;;;;;;;2.66;100.00;97430.81;5092718;28;20263;-50
2022/04/17 03:37:30;;;;;;;10.30;8.90;;;;;;;2.51;100.00;97437.59;5099445;28;20059;-51
2022/04/17 03:39:59;;;;;;;10.10;8.73;;;;;;;2.50;100.00;97432.44;5099543;28;20461;-57
2022/04/17 03:42:27;;;;;;;9.68;8.00;;;;;;;2.51;100.00;97437.59;5097096;28;20071;-53
2022/04/17 03:44:55;;;;;;;10.20;7.95;;;;;;;2.46;100.00;97429.13;5095396;28;20488;-51
2022/04/17 03:47:24;;;;;;;9.20;8.30;;;;;;;2.54;100.00;97427.00;5096591;28;20453;-53
2022/04/17 03:49:52;;;;;;;9.23;7.88;;;;;;;2.54;100.00;97419.19;5095679;28;20083;-56
2022/04/17 03:52:22;;;;;;;9.82;7.50;;;;;;;2.52;100.00;97422.81;5097913;28;20084;-57
2022/04/17 03:54:50;;;;;;;9.55;8.10;;;;;;;2.52;100.00;97421.03;5100616;28;20110;-62
2022/04/17 03:57:18;;;;;;;9.73;8.60;;;;;;;2.37;100.00;97420.00;5075990;28;20094;-55
2022/04/17 03:59:47;;;;;;;9.05;7.85;;;;;;;2.46;100.00;97423.09;5092695;28;20063;-51
2022/04/17 04:02:15;;;;;;;10.70;8.30;;;;;;;2.64;100.00;97430.03;5097977;28;20071;-57
2022/04/17 04:04:44;;;;;;;8.98;8.05;;;;;;;2.50;100.00;97422.84;5095630;28;20063;-52
2022/04/17 04:07:14;;;;;;;9.55;8.32;;;;;;;2.60;100.00;97428.50;5092180;28;20513;-55
2022/04/17 04:09:43;;;;;;;9.63;8.45;;;;;;;2.57;100.00;97428.63;5095967;28;20075;-51
2022/04/17 04:12:12;;;;;;;11.07;8.60;;;;;;;2.19;100.00;97433.84;5098701;28;20067;-49
2022/04/17 04:14:40;;;;;;;9.73;8.73;;;;;;;2.26;100.00;97447.41;5094082;28;20082;-52
2022/04/17 04:17:09;;;;;;;9.63;8.73;;;;;;;2.38;100.00;97445.09;5095136;28;20494;-52
2022/04/17 04:19:38;;;;;;;10.98;8.65;;;;;;;2.46;100.00;97433.50;5101605;28;20101;-56
2022/04/17 04:22:06;;;;;;;9.55;7.93;;;;;;;2.38;100.00;97434.69;5093122;28;20079;-50
2022/04/17 04:24:35;;;;;;;13.48;8.85;;;;;;;2.26;100.00;97426.59;5099500;28;20043;-54
2022/04/17 04:29:51;;;;;;;9.00;8.10;;;;;;;2.40;100.00;97419.00;5078891;28;20358;-49
2022/04/17 04:32:21;;;;;;;9.30;8.25;;;;;;;2.37;100.00;97422.59;5097518;28;20520;-53
2022/04/17 04:34:49;;;;;;;10.13;8.87;;;;;;;2.41;100.00;97425.91;5102570;28;20059;-56
2022/04/17 04:37:18;;;;;;;9.27;8.38;;;;;;;2.50;100.00;97425.47;5100142;28;20071;-58
2022/04/17 04:39:46;;;;;;;11.15;8.88;;;;;;;2.57;100.00;97428.63;5084409;28;20062;-53
2022/04/17 04:42:17;;;;;;;10.70;9.18;;;;;;;2.55;100.00;97425.28;5097675;28;20087;-52
2022/04/17 04:44:47;;;;;;;10.15;8.77;;;;;;;2.56;100.00;97425.19;5092474;28;20067;-51
2022/04/17 04:47:14;;;;;;;11.43;9.02;;;;;;;2.67;100.00;97416.03;5098635;28;20063;-59
2022/04/17 04:49:43;;;;;;;9.55;8.55;;;;;;;2.77;100.00;97420.72;5102753;28;20525;-48
2022/04/17 04:52:11;;;;;;;11.05;8.93;;;;;;;2.90;100.00;97427.97;5101001;28;20102;-59
2022/04/17 04:54:40;;;;;;;9.85;8.93;;;;;;;3.07;100.00;97428.00;5093037;28;20079;-57
2022/04/17 04:57:08;;;;;;;10.63;9.02;;;;;;;3.15;100.00;97417.19;5098849;28;20063;-59
2022/04/17 04:59:37;;;;;;;12.55;11.35;;;;;;;4.48;100.00;97418.13;5103358;28;20056;-56
2022/04/17 05:02:06;;;;;;;11.52;10.43;;;;;;;5.58;100.00;97408.44;5102751;27;20083;-55
2022/04/17 05:04:35;;;;;;;12.35;10.13;;;;;;;5.87;100.00;97414.53;5099716;28;20067;-50
2022/04/17 05:07:04;;;;;;;10.10;9.13;;;;;;;6.28;100.00;97403.34;5100054;28;20113;-58
2022/04/17 05:09:32;;;;;;;9.95;8.93;;;;;;;6.42;100.00;97400.72;5112563;27;20303;-55
2022/04/17 05:12:00;;;;;;;9.32;8.40;;;;;;;6.61;100.00;97397.78;5112566;27;20077;-53
2022/04/17 05:14:29;;;;;;;8.90;8.07;;;;;;;6.47;100.00;97408.28;5106275;27;20039;-58
2022/04/17 05:16:59;;;;;;;8.00;7.25;;;;;;;6.92;100.00;97415.03;5101905;28;20081;-50
2022/04/17 05:19:27;;;;;;;7.65;7.00;;;;;;;6.46;100.00;97411.84;5102690;27;20071;-50
2022/04/17 05:21:58;;;;;;;6.88;6.18;;;;;;;6.49;100.00;97411.66;5106163;27;20087;-52
2022/04/17 05:24:27;;;;;;;7.75;5.80;;;;;;;6.75;100.00;97408.25;5104391;27;20483;-55
2022/04/17 05:26:55;;;;;;;7.00;6.20;;;;;;;5.81;100.00;97417.50;5103259;27;20059;-57
2022/04/17 05:29:24;;;;;;;7.20;6.50;;;;;;;5.13;100.00;97411.00;5102377;27;20070;-57
2022/04/17 05:31:52;;;;;;;9.05;7.03;;;;;;;5.11;100.00;97412.00;5100075;27;20093;-53
2022/04/17 05:34:22;;;;;;;7.72;7.03;;;;;;;5.44;100.00;97414.47;5103100;27;20090;-52
2022/04/17 05:36:50;;;;;;;9.23;7.17;;;;;;;5.28;100.00;97408.44;5100256;27;20549;-51
2022/04/17 05:39:18;;;;;;;7.78;7.00;;;;;;;5.38;100.00;97406.97;5099813;27;20096;-56
2022/04/17 05:41:47;;;;;;;8.73;7.75;;;;;;;5.21;100.00;97414.00;5101841;28;20051;-50
2022/04/17 05:44:15;;;;;;;9.55;7.38;;;;;;;5.21;100.00;97414.00;5102111;28;20071;-54
2022/04/17 05:46:44;;;;;;;8.10;7.30;;;;;;;5.24;100.00;97416.44;5079053;28;20068;-54
2022/04/17 05:49:12;;;;;;;8.85;7.15;;;;;;;5.13;100.00;97420.63;5079548;27;20524;-55
2022/04/17 05:51:42;;;;;;;9.13;6.80;;;;;;;5.00;100.00;97415.25;5100703;27;20450;-55
2022/04/17 05:54:10;;;;;;;7.25;6.55;;;;;;;5.17;100.00;97416.91;5101641;28;20769;-55
2022/04/17 05:56:38;;;;;;;8.75;6.97;;;;;;;5.17;100.00;97424.75;5103675;27;20044;-58
2022/04/17 05:59:07;;;;;;;7.70;6.97;;;;;;;5.42;100.00;97422.38;5102435;27;20056;-55
2022/04/17 06:01:36;;;;;;;7.45;6.70;;;;;;;4.99;100.00;97429.25;5084027;28;20074;-51
2022/04/17 06:04:04;;;;;;;8.32;7.10;;;;;;;5.30;100.00;97423.13;5099160;27;20075;-56
2022/04/17 06:06:33;;;;;;;6.82;6.13;;;;;;;5.07;100.00;97423.56;5104060;27;20079;-50
2022/04/17 06:09:02;;;;;;;6.50;5.90;;;;;;;5.21;100.00;97419.25;5103426;28;20150;-49
2022/04/17 06:11:31;;;;;;;7.53;6.60;;;;;;;5.50;100.00;97421.09;5106076;27;20510;-49
2022/04/17 06:14:00;;;;;;;6.90;6.25;;;;;;;5.84;100.00;97417.34;5103132;27;20055;-56
2022/04/17 06:16:28;;;;;;;8.57;6.20;;;;;;;5.60;100.00;97420.47;5102230;27;20480;-51
2022/04/17 06:18:57;;;;;;;8.02;6.72;;;;;;;5.45;100.00;97418.75;5104471;27;20067;-52
2022/04/17 06:21:25;;;;;;;6.68;6.03;;;;;;;5.85;100.00;97414.63;5099742;27;20442;-55
2022/04/17 06:23:53;;;;;;;7.57;6.80;;;;;;;5.77;100.00;97422.09;5101459;27;20063;-52
2022/04/17 06:26:23;;;;;;;8.57;6.55;;;;;;;6.01;100.00;97416.34;5096676;27;20079;-52
2022/04/17 06:28:52;;;;;;;8.07;7.00;;;;;;;6.15;100.00;97427.66;5101268;27;20063;-50
2022/04/17 06:31:20;;;;;;;7.60;6.40;;;;;;;6.33;100.00;97417.00;5102207;27;20090;-48
2022/04/17 06:33:48;;;;;;;8.35;6.60;;;;;;;6.13;100.00;97426.09;5106981;27;20090;-57
2022/04/17 06:36:17;;;;;;;7.72;5.90;;;;;;;6.23;100.00;97415.88;5101140;28;20083;-56
2022/04/17 06:38:45;;;;;;;6.95;6.00;;;;;;;6.18;100.00;97413.53;5099642;28;20060;-54
2022/04/17 06:41:13;;;;;;;6.63;6.03;;;;;;;6.37;100.00;97413.28;5097558;27;20395;-53
2022/04/17 06:43:43;;;;;;;6.50;5.47;;;;;;;6.49;100.00;97409.03;5102163;27;20162;-51
2022/04/17 06:46:11;;;;;;;6.70;5.82;;;;;;;7.02;100.00;97408.25;5099929;28;20075;-54
2022/04/17 06:48:39;;;;;;;7.40;5.60;;;;;;;6.69;100.00;97402.53;5100727;27;20144;-53
2022/04/17 06:51:08;;;;;;;5.85;5.35;;;;;;;6.94;100.00;97405.25;5102237;28;20444;-55
2022/04/17 06:53:36;;;;;;;5.93;5.32;;;;;;;7.09;100.00;97406.09;5105723;27;20067;-57
2022/04/17 06:56:12;;;;;;;5.97;5.20;;;;;;;7.02;100.00;97402.16;5108229;27;20063;-54
2022/04/17 06:58:40;;;;;;;6.28;5.57;;;;;;;7.22;100.00;97409.56;5104143;27;20776;-55
2022/04/17 07:01:10;;;;;;;7.15;5.50;;;;;;;7.41;100.00;97405.75;5108176;27;20123;-60
2022/04/17 07:03:38;;;;;;;6.07;4.90;;;;;;;7.50;100.00;97412.97;5100600;28;20079;-54
2022/04/17 07:06:06;;;;;;;5.70;5.15;;;;;;;7.89;100.00;97406.84;5103068;27;20051;-59
2022/04/17 07:08:35;;;;;;;6.22;5.60;;;;;;;7.87;100.00;97413.16;5104023;27;20177;-57
2022/04/17 07:11:03;;;;;;;7.10;5.07;;;;;;;7.89;100.00;97416.53;5097489;27;20074;-54
2022/04/17 07:13:31;;;;;;;5.68;4.78;;;;;;;7.85;100.00;97413.25;5102055;27;20062;-58
2022/04/17 07:16:00;;;;;;;5.72;4.93;;;;;;;7.99;100.00;97409.69;5104719;27;20063;-56
2022/04/17 07:18:29;;;;;;;7.57;5.10;;;;;;;8.29;100.00;97406.72;5102977;27;20579;-56
2022/04/17 07:20:58;;;;;;;7.47;5.67;;;;;;;8.42;100.00;97410.19;5101072;27;20055;-57
2022/04/17 07:23:26;;;;;;;5.93;5.20;;;;;;;8.41;100.00;97410.31;5102430;27;20074;-51
2022/04/17 07:25:56;;;;;;;8.32;5.68;;;;;;;8.61;100.00;97409.75;5096290;27;20066;-56
2022/04/17 07:28:25;;;;;;;5.40;4.90;;;;;;;8.66;97.28;97404.16;5100717;28;20833;-54
2022/04/17 07:30:53;;;;;;;5.60;4.78;;;;;;;8.31;94.31;97400.41;5105976;27;20075;-54
2022/04/17 07:33:22;;;;;;;6.10;4.82;;;;;;;8.75;88.05;97391.19;5098709;28;20074;-58
2022/04/17 07:35:52;;;;;;;6.88;5.38;;;;;;;8.96;92.30;97386.16;5102328;27;20480;-55
2022/04/17 07:38:20;;;;;;;5.00;4.53;;;;;;;9.10;87.95;97400.13;5100135;27;20071;-56
2022/04/17 07:40:49;;;;;;;4.93;4.32;;;;;;;8.88;86.91;97395.56;5098176;27;20609;-58
2022/04/17 07:43:17;;;;;;;5.20;4.70;;;;;;;8.75;86.25;97399.09;5097556;27;20079;-53
2022/04/17 07:45:45;;;;;;;5.07;4.50;;;;;;;9.02;80.86;97398.88;5098771;28;20481;-58
2022/04/17 07:48:13;;;;;;;5.07;4.53;;;;;;;8.84;76.21;97397.56;5094502;28;20071;-61
2022/04/17 07:50:42;;;;;;;7.88;5.05;;;;;;;9.28;77.39;97398.75;5102990;27;20509;-59
2022/04/17 07:53:12;;;;;;;5.20;4.70;;;;;;;9.67;74.95;97392.31;5101163;28;20059;-57
2022/04/17 07:55:40;;;;;;;8.07;4.80;;;;;;;9.73;69.36;97383.94;5102179;28;20439;-54
2022/04/17 07:58:12;;;;;;;5.25;4.50;;;;;;;9.04;69.47;97393.50;5097453;28;20087;-56
2022/04/17 08:00:46;;;;;;;6.35;5.30;;;;;;;9.68;68.03;97386.09;5102900;28;20138;-55
2022/04/17 08:03:24;;;;;;;6.53;4.50;;;;;;;9.86;71.36;97381.19;5095998;28;20512;-55
2022/04/17 08:05:53;;;;;;;5.25;4.50;;;;;;;9.57;62.96;97380.78;5104050;28;20059;-55
2022/04/17 08:08:22;;;;;;;6.53;4.40;;;;;;;9.81;58.22;97380.72;5098806;28;20059;-56
2022/04/17 08:10:51;;;;;;;5.70;4.65;;;;;;;9.94;58.42;97375.34;5109279;28;20454;-55
2022/04/17 08:13:19;;;;;;;4.50;4.10;;;;;;;10.08;57.56;97383.03;5106166;28;20090;-55
2022/04/17 08:15:47;;;;;;;4.78;4.00;;;;;;;9.79;55.48;97382.63;5106509;28;20086;-56
2022/04/17 08:18:16;;;;;;;6.20;4.20;;;;;;;9.98;53.65;97376.81;5097910;28;20068;-58
2022/04/17 08:20:45;;;;;;;5.35;4.25;;;;;;;10.25;55.14;97379.06;5102945;28;20521;-56
2022/04/17 08:23:13;;;;;;;4.65;4.10;;;;;;;10.16;54.69;97371.91;5095899;28;20096;-57
2022/04/17 08:25:43;;;;;;;6.38;4.20;;;;;;;10.15;53.66;97371.06;5101493;28;20067;-56
2022/04/17 08:28:11;;;;;;;5.10;4.60;;;;;;;10.14;54.42;97371.16;5100612;28;20530;-53
2022/04/17 08:30:40;;;;;;;4.30;3.90;;;;;;;9.77;52.74;97371.34;5097937;28;20071;-51
2022/04/17 08:33:09;;;;;;;4.68;4.28;;;;;;;10.10;52.85;97372.38;5105621;27;20097;-54
2022/04/17 08:35:37;;;;;;;5.28;4.00;;;;;;;10.54;52.00;97366.28;5103449;27;20484;-58
2022/04/17 08:38:06;;;;;;;7.30;3.65;;;;;;;10.13;51.04;97364.22;5105976;27;20067;-55
2022/04/17 08:40:34;;;;;;;4.15;3.40;;;;;;;10.56;50.50;97360.88;5110560;27;20082;-60
2022/04/17 08:43:04;;;;;;;5.30;3.47;;;;;;;10.62;50.56;97358.56;5103337;27;20466;-58
2022/04/17 08:45:33;;;;;;;5.28;3.63;;;;;;;10.49;51.07;97349.97;5104275;28;21361;-56
2022/04/17 08:48:02;;;;;;;6.25;4.43;;;;;;;10.81;49.48;97357.13;5107153;27;20079;-55
2022/04/17 08:50:32;;;;;;;4.83;3.50;;;;;;;10.76;48.62;97351.34;5104497;27;20067;-55
2022/04/17 08:53:01;;;;;;;5.30;3.97;;;;;;;10.92;50.28;97355.28;5102475;27;20614;-59
2022/04/17 08:55:29;;;;;;;4.93;3.35;;;;;;;10.82;49.56;97340.31;5105287;27;20422;-55
2022/04/17 08:57:57;;;;;;;6.35;4.10;;;;;;;10.44;51.35;97341.59;5106293;27;20223;-55
2022/04/17 09:00:28;;;;;;;4.10;3.38;;;;;;;10.31;47.67;97339.09;5108419;27;20252;-56
2022/04/17 09:02:56;;;;;;;5.70;3.90;;;;;;;10.51;48.86;97339.31;5100620;28;20067;-56
2022/04/17 09:05:24;;;;;;;4.40;4.00;;;;;;;10.82;49.24;97330.59;5105088;27;20078;-55
2022/04/17 09:07:54;;;;;;;4.32;3.90;;;;;;;10.53;49.95;97332.97;5104182;28;20461;-56
2022/04/17 09:10:27;;;;;;;5.63;4.03;;;;;;;11.12;49.89;97329.06;5106543;27;20098;-56
2022/04/17 09:12:56;;;;;;;5.07;3.78;;;;;;;10.28;49.59;97323.50;5107358;27;20086;-59
2022/04/17 09:15:27;;;;;;;5.78;4.07;;;;;;;10.71;49.11;97329.81;5104360;27;20063;-56
2022/04/17 09:17:55;;;;;;;5.82;4.18;;;;;;;10.46;49.26;97326.50;5098137;28;20066;-54
2022/04/17 09:20:24;;;;;;;6.85;3.88;;;;;;;11.20;50.02;97313.41;5105931;27;20126;-55
2022/04/17 09:22:53;;;;;;;3.65;3.33;;;;;;;11.15;48.56;97316.44;5104681;27;20082;-57
2022/04/17 09:25:24;;;;;;;4.53;4.13;;;;;;;11.14;48.49;97308.63;5103340;27;20461;-56
2022/04/17 09:27:57;;;;;;;4.53;3.33;;;;;;;10.56;48.54;97300.19;5111208;27;20079;-56
2022/04/17 09:30:29;;;;;;;4.78;3.80;;;;;;;10.81;49.74;97299.91;5111835;27;20062;-57
2022/04/17 09:32:58;;;;;;;5.65;4.43;;;;;;;11.19;47.85;97292.44;5102286;27;20106;-53
2022/04/17 09:35:27;;;;;;;4.80;3.63;;;;;;;10.88;48.78;97292.31;5105617;28;20560;-52
2022/04/17 09:37:57;;;;;;;5.13;3.65;;;;;;;11.07;47.30;97289.81;5101702;27;20067;-55
2022/04/17 09:40:27;;;;;;;3.70;3.40;;;;;;;10.85;46.27;97289.94;5099982;28;20072;-58
2022/04/17 09:43:11;;;;;;;4.75;3.63;;;;;;;11.16;46.58;97286.44;5102883;28;20126;-54
2022/04/17 09:46:00;;;;;;;5.40;4.45;;;;;;;11.15;46.19;97276.00;5106538;27;20093;-60
2022/04/17 09:48:33;;;;;;;4.80;3.53;;;;;;;10.91;47.93;97284.16;5104440;27;20071;-55
2022/04/17 09:51:02;;;;;;;5.35;4.00;;;;;;;11.22;46.05;97273.66;5102580;27;20063;-54
2022/04/17 09:53:32;;;;;;;4.95;4.40;;;;;;;10.62;46.96;97275.97;5106969;27;20103;-54
2022/04/17 09:56:08;;;;;;;4.88;4.05;;;;;;;10.86;48.05;97268.69;5104393;27;20076;-58
2022/04/17 09:58:45;;;;;;;7.60;3.53;;;;;;;11.15;47.46;97274.19;5104514;27;20060;-55
2022/04/17 10:01:18;;;;;;;4.55;3.42;;;;;;;10.80;46.43;97252.53;5108346;27;20180;-57
2022/04/17 10:03:48;;;;;;;4.57;3.42;;;;;;;11.21;46.17;97267.56;5105389;27;20082;-56
2022/04/17 10:06:17;;;;;;;4.80;4.10;;;;;;;11.16;46.99;97264.47;5104548;27;20426;-57
2022/04/17 10:08:45;;;;;;;4.50;3.88;;;;;;;11.28;45.48;97249.41;5098362;27;20072;-54
2022/04/17 10:11:14;;;;;;;5.50;4.60;;;;;;;11.30;46.14;97242.19;5101251;27;20068;-59
2022/04/17 10:13:44;;;;;;;4.28;3.42;;;;;;;11.26;45.98;97238.16;5102238;27;20082;-53
2022/04/17 10:16:14;;;;;;;6.15;4.35;;;;;;;11.30;45.44;97242.19;5103087;27;20076;-56
2022/04/17 10:18:42;;;;;;;;;;;;;;;11.84;44.91;97238.47;5106715;27;20083;-53
2022/04/17 10:21:11;;;;;;;4.53;3.80;;;;;;;11.31;44.23;97234.13;5106228;27;19967;-56
2022/04/17 10:23:42;;;;;;;4.40;3.45;;;;;;;11.50;45.03;97228.13;5102909;27;20059;-56
2022/04/17 10:26:13;;;;;;;5.45;3.60;;;;;;;11.82;44.24;97222.69;5105978;27;20067;-57
2022/04/17 10:28:42;;;;;;;;;;;;;;;11.52;44.46;97231.47;5101293;27;20087;-58
2022/04/17 10:31:17;;;;;;;4.30;3.90;;;;;;;11.34;44.87;97218.03;5101488;27;19951;-57
2022/04/17 10:34:12;;;;;;;7.28;4.18;;;;;;;11.76;44.67;97207.38;5108425;27;20090;-59
2022/04/17 10:37:01;;;;;;;5.25;4.10;;;;;;;12.59;43.32;97211.50;5085685;28;20293;-55
2022/04/17 10:39:33;;;;;;;6.72;4.10;;;;;;;12.75;44.55;97218.03;5084547;28;20067;-53
2022/04/17 10:42:08;;;;;;;4.10;3.70;;;;;;;12.20;44.11;97215.06;5099954;27;20059;-59
2022/04/17 10:44:41;;;;;;;5.88;4.25;;;;;;;12.10;42.85;97207.09;5106233;27;20067;-58
2022/04/17 10:47:20;;;;;;;4.65;3.88;;;;;;;12.31;43.61;97193.75;5102983;27;20059;-58
2022/04/17 10:49:56;;;;;;;4.90;4.00;;;;;;;12.36;43.93;97204.78;5098835;28;20059;-59
2022/04/17 10:52:25;;;;;;;4.38;3.65;;;;;;;12.17;42.58;97197.63;5105274;27;20078;-57
2022/04/17 10:54:55;;;;;;;6.35;4.03;;;;;;;11.99;41.66;97202.75;5105733;28;20086;-55
2022/04/17 10:57:24;;;;;;;5.65;3.70;;;;;;;12.30;41.52;97189.47;5105312;27;20067;-58
2022/04/17 11:00:27;;;;;;;5.43;4.07;;;;;;;11.99;43.37;97204.56;5105231;27;20062;-57
2022/04/17 11:03:22;;;;;;;4.60;4.20;;;;;;;12.42;42.87;97192.78;5102029;27;20053;-57
2022/04/17 11:08:47;;;;;;;6.50;3.80;;;;;;;12.58;41.38;97186.00;5103593;27;20094;-56
2022/04/17 11:11:15;;;;;;;3.75;3.42;;;;;;;12.57;42.36;97175.56;5107214;27;20071;-59
2022/04/17 11:14:08;;;;;;;7.97;4.63;;;;;;;12.55;44.19;97190.72;5108991;27;20093;-55
2022/04/17 11:16:47;;;;;;;5.47;4.50;;;;;;;12.98;44.30;97177.06;5108344;27;20070;-59
2022/04/17 11:19:18;;;;;;;5.40;4.55;;;;;;;12.55;44.14;97172.19;5109966;27;20079;-60
2022/04/17 11:21:49;;;;;;;5.18;4.22;;;;;;;12.33;43.59;97175.97;5104970;27;20079;-59
2022/04/17 11:24:19;;;;;;;5.18;4.38;;;;;;;12.69;43.15;97181.53;5102493;27;20067;-59
2022/04/17 11:27:10;;;;;;;5.10;3.40;;;;;;;12.85;43.61;97168.56;5101245;28;20540;-58
2022/04/17 11:29:44;;;;;;;4.88;4.13;;;;;;;12.99;43.25;97164.66;5101339;27;20059;-54
2022/04/17 11:32:47;;;;;;;5.10;4.60;;;;;;;12.79;43.12;97175.25;5099789;28;20067;-56
2022/04/17 11:35:20;;;;;;;4.95;4.35;;;;;;;13.10;43.21;97163.66;5102311;28;20071;-54
2022/04/17 11:37:52;;;;;;;4.72;4.32;;;;;;;13.44;42.42;97156.88;5103924;27;20134;-56
2022/04/17 11:40:23;;;;;;;6.53;4.45;;;;;;;12.81;42.67;97157.44;5104398;28;20494;-56
2022/04/17 11:42:52;;;;;;;;;;;;;;;12.83;43.60;97152.84;5101445;27;20684;-57
2022/04/17 11:45:22;;;;;;;6.65;4.65;;;;;;;13.09;42.48;97154.03;5082876;28;19958;-57
2022/04/17 11:47:51;;;;;;;4.63;4.18;;;;;;;13.40;42.06;97147.56;5064402;28;20410;-59
2022/04/17 11:50:26;;;;;;;4.70;4.30;;;;;;;13.18;41.96;97132.84;5074311;28;20064;-53
2022/04/17 11:52:57;;;;;;;5.97;4.28;;;;;;;13.42;41.90;97139.44;5074473;28;20082;-53
2022/04/17 11:55:26;;;;;;;5.22;4.05;;;;;;;13.35;41.08;97139.22;5072438;28;20083;-57
2022/04/17 11:57:55;;;;;;;5.83;4.47;;;;;;;14.07;41.29;97142.03;5078900;28;20080;-57
2022/04/17 12:00:24;;;;;;;5.70;4.43;;;;;;;13.40;42.90;97149.38;5101719;28;20513;-59
2022/04/17 12:03:00;;;;;;;4.55;4.15;;;;;;;13.65;41.36;97142.56;5104503;28;20216;-57